createdAt,value
2018-10-07T00:00:49.865Z,13.30
2018-10-07T00:03:18.644Z,13.20
2018-10-07T00:05:47.934Z,13.20
2018-10-07T00:08:16.497Z,13.20
2018-10-07T00:10:45.098Z,13.20
2018-10-07T00:13:13.788Z,13.10
2018-10-07T00:15:42.746Z,13.10
2018-10-07T00:18:11.319Z,13.10
2018-10-07T00:20:39.937Z,13.10
2018-10-07T00:23:08.521Z,13.10
2018-10-07T00:25:37.106Z,13.00
2018-10-07T00:28:06.060Z,13.00
2018-10-07T00:30:34.673Z,13.00
2018-10-07T00:33:03.237Z,13.00
2018-10-07T00:35:31.832Z,13.00
2018-10-07T00:38:00.412Z,12.90
2018-10-07T00:40:29.013Z,13.00
2018-10-07T00:42:57.652Z,12.90
2018-10-07T00:45:26.310Z,13.00
2018-10-07T00:47:54.909Z,13.00
2018-10-07T00:50:23.549Z,13.00
2018-10-07T00:52:52.368Z,12.90
2018-10-07T00:55:21.733Z,12.90
2018-10-07T00:57:50.326Z,12.90
2018-10-07T01:00:19.175Z,12.90
2018-10-07T01:02:47.776Z,12.90
2018-10-07T01:05:16.394Z,12.90
2018-10-07T01:07:44.977Z,12.80
2018-10-07T01:10:13.576Z,12.80
2018-10-07T01:12:42.224Z,12.90
2018-10-07T01:15:10.887Z,12.80
2018-10-07T01:17:39.682Z,12.70
2018-10-07T01:20:08.360Z,12.70
2018-10-07T01:22:37.351Z,12.80
2018-10-07T01:25:06.237Z,12.80
2018-10-07T01:27:34.918Z,12.80
2018-10-07T01:30:05.080Z,12.80
2018-10-07T01:32:33.653Z,12.70
2018-10-07T01:35:02.260Z,12.60
2018-10-07T01:37:30.837Z,12.70
2018-10-07T01:39:59.434Z,12.70
2018-10-07T01:42:28.042Z,12.70
2018-10-07T01:44:56.660Z,12.60
2018-10-07T01:47:25.240Z,12.60
2018-10-07T01:49:54.514Z,12.60
2018-10-07T01:52:23.103Z,12.60
2018-10-07T01:54:51.712Z,12.50
2018-10-07T01:57:20.281Z,12.40
2018-10-07T01:59:49.005Z,12.40
2018-10-07T02:02:17.583Z,12.40
2018-10-07T02:04:46.180Z,12.40
2018-10-07T02:07:22.176Z,12.40
2018-10-07T02:09:55.495Z,12.40
2018-10-07T02:12:25.792Z,12.40
2018-10-07T02:14:55.045Z,12.30
2018-10-07T02:17:23.676Z,12.20
2018-10-07T02:19:52.281Z,12.30
2018-10-07T02:22:20.925Z,12.20
2018-10-07T02:24:49.691Z,12.20
2018-10-07T02:27:18.277Z,12.20
2018-10-07T02:29:46.857Z,12.10
2018-10-07T02:32:15.454Z,12.10
2018-10-07T02:34:44.025Z,12.10
2018-10-07T02:37:12.615Z,12.00
2018-10-07T02:39:41.176Z,12.00
2018-10-07T02:42:09.810Z,12.00
2018-10-07T02:44:38.393Z,12.00
2018-10-07T02:47:07.240Z,12.00
2018-10-07T02:49:35.796Z,12.00
2018-10-07T02:52:04.466Z,12.00
2018-10-07T02:54:33.403Z,12.00
2018-10-07T02:57:02.089Z,12.00
2018-10-07T02:59:30.751Z,11.80
2018-10-07T03:01:59.378Z,11.90
2018-10-07T03:04:28.027Z,11.90
2018-10-07T03:06:56.620Z,11.90
2018-10-07T03:09:25.231Z,11.80
2018-10-07T03:11:53.808Z,11.80
2018-10-07T03:14:22.394Z,11.80
2018-10-07T03:16:51.000Z,11.80
2018-10-07T03:19:19.574Z,11.80
2018-10-07T03:21:48.187Z,11.80
2018-10-07T03:24:16.759Z,11.70
2018-10-07T03:26:45.351Z,11.70
2018-10-07T03:29:13.979Z,11.70
2018-10-07T03:31:42.662Z,11.70
2018-10-07T03:34:11.649Z,11.70
2018-10-07T03:36:40.304Z,11.70
2018-10-07T03:39:09.360Z,11.60
2018-10-07T03:41:38.269Z,11.60
2018-10-07T03:44:06.933Z,11.60
2018-10-07T03:46:35.549Z,11.50
2018-10-07T03:49:04.141Z,11.60
2018-10-07T03:51:32.727Z,11.60
2018-10-07T03:54:01.297Z,11.60
2018-10-07T03:56:29.900Z,11.50
2018-10-07T03:58:58.481Z,11.50
2018-10-07T04:01:27.184Z,11.50
2018-10-07T04:03:55.777Z,11.40
2018-10-07T04:06:24.380Z,11.40
2018-10-07T04:08:52.966Z,11.50
2018-10-07T04:11:21.570Z,11.50
2018-10-07T04:13:50.139Z,11.50
2018-10-07T04:16:18.805Z,11.40
2018-10-07T04:18:47.337Z,11.40
2018-10-07T04:21:15.933Z,11.40
2018-10-07T04:23:44.496Z,11.40
2018-10-07T04:26:13.108Z,11.40
2018-10-07T04:28:41.688Z,11.30
2018-10-07T04:31:10.294Z,11.30
2018-10-07T04:33:38.865Z,11.20
2018-10-07T04:36:07.474Z,11.20
2018-10-07T04:38:36.128Z,11.20
2018-10-07T04:41:04.712Z,11.20
2018-10-07T04:43:33.312Z,11.20
2018-10-07T04:46:01.918Z,11.10
2018-10-07T04:48:30.538Z,11.10
2018-10-07T04:50:59.137Z,11.10
2018-10-07T04:53:27.706Z,11.20
2018-10-07T04:55:56.416Z,11.20
2018-10-07T04:58:25.016Z,11.10
2018-10-07T05:00:53.838Z,11.20
2018-10-07T05:03:22.445Z,11.10
2018-10-07T05:05:51.229Z,11.10
2018-10-07T05:08:19.916Z,11.10
2018-10-07T05:10:51.516Z,11.10
2018-10-07T05:13:42.053Z,11.00
2018-10-07T05:16:10.968Z,11.00
2018-10-07T05:18:39.584Z,10.90
2018-10-07T05:21:08.250Z,10.90
2018-10-07T05:23:36.878Z,10.90
2018-10-07T05:26:05.535Z,10.90
2018-10-07T05:28:34.130Z,10.90
2018-10-07T05:31:02.754Z,11.00
2018-10-07T05:33:31.411Z,11.00
2018-10-07T05:35:59.924Z,11.00
2018-10-07T05:38:28.534Z,11.00
2018-10-07T05:40:57.682Z,11.00
2018-10-07T05:43:26.603Z,10.90
2018-10-07T05:45:55.751Z,10.80
2018-10-07T05:48:24.349Z,10.80
2018-10-07T05:50:52.991Z,10.90
2018-10-07T05:53:21.611Z,10.90
2018-10-07T05:55:50.318Z,10.90
2018-10-07T05:58:19.178Z,10.90
2018-10-07T06:00:47.844Z,11.00
2018-10-07T06:03:22.748Z,10.90
2018-10-07T06:05:51.918Z,10.90
2018-10-07T06:08:21.069Z,11.00
2018-10-07T06:10:49.673Z,11.00
2018-10-07T06:13:18.321Z,11.10
2018-10-07T06:15:46.936Z,11.00
2018-10-07T06:18:15.589Z,11.00
2018-10-07T06:20:44.168Z,11.10
2018-10-07T06:23:12.805Z,11.10
2018-10-07T06:25:41.403Z,11.20
2018-10-07T06:28:10.034Z,11.30
2018-10-07T06:30:38.620Z,11.40
2018-10-07T06:33:07.287Z,11.40
2018-10-07T06:35:36.874Z,11.40
2018-10-07T06:38:08.345Z,11.40
2018-10-07T06:40:37.048Z,11.50
2018-10-07T06:43:05.713Z,11.60
2018-10-07T06:45:34.468Z,11.60
2018-10-07T06:48:03.205Z,11.60
2018-10-07T06:50:31.833Z,11.70
2018-10-07T06:53:00.447Z,12.10
2018-10-07T06:55:29.035Z,12.70
2018-10-07T06:57:57.656Z,13.30
2018-10-07T07:00:26.267Z,13.80
2018-10-07T07:02:54.892Z,14.50
2018-10-07T07:05:23.473Z,15.20
2018-10-07T07:07:52.060Z,15.80
2018-10-07T07:10:20.625Z,16.40
2018-10-07T07:12:51.082Z,17.00
2018-10-07T07:15:19.748Z,17.40
2018-10-07T07:17:48.369Z,18.00
2018-10-07T07:20:17.007Z,18.30
2018-10-07T07:22:45.598Z,18.70
2018-10-07T07:25:14.173Z,19.20
2018-10-07T07:27:42.985Z,19.70
2018-10-07T07:30:11.696Z,20.20
2018-10-07T07:32:40.270Z,20.50
2018-10-07T07:35:08.901Z,20.60
2018-10-07T07:37:37.485Z,20.60
2018-10-07T07:40:06.549Z,20.90
2018-10-07T07:42:35.156Z,21.30
2018-10-07T07:45:03.839Z,21.70
2018-10-07T07:47:32.408Z,22.20
2018-10-07T07:50:01.009Z,22.80
2018-10-07T07:52:29.587Z,23.10
2018-10-07T07:54:58.207Z,23.50
2018-10-07T07:57:26.791Z,23.80
2018-10-07T07:59:55.385Z,24.10
2018-10-07T08:02:23.962Z,24.60
2018-10-07T08:04:52.904Z,25.00
2018-10-07T08:07:21.473Z,25.40
2018-10-07T08:09:50.065Z,25.90
2018-10-07T08:12:18.658Z,26.20
2018-10-07T08:14:47.261Z,26.60
2018-10-07T08:17:15.842Z,26.70
2018-10-07T08:19:44.456Z,26.50
2018-10-07T08:22:13.152Z,26.20
2018-10-07T08:24:41.750Z,26.40
2018-10-07T08:27:10.759Z,26.30
2018-10-07T08:29:39.425Z,26.50
2018-10-07T08:32:07.978Z,26.70
2018-10-07T08:34:36.574Z,27.10
2018-10-07T08:37:05.214Z,27.40
2018-10-07T08:39:33.818Z,28.10
2018-10-07T08:42:02.422Z,28.30
2018-10-07T08:44:31.014Z,28.60
2018-10-07T08:46:59.630Z,29.10
2018-10-07T08:49:28.229Z,29.40
2018-10-07T08:51:56.800Z,29.80
2018-10-07T08:54:25.625Z,30.10
2018-10-07T08:56:54.196Z,30.30
2018-10-07T08:59:22.805Z,30.60
2018-10-07T09:01:51.404Z,30.90
2018-10-07T09:04:20.024Z,31.10
2018-10-07T09:06:48.598Z,31.20
2018-10-07T09:09:17.196Z,31.10
2018-10-07T09:11:45.765Z,30.90
2018-10-07T09:14:14.371Z,30.20
2018-10-07T09:16:42.957Z,29.80
2018-10-07T09:19:11.635Z,29.50
2018-10-07T09:21:40.217Z,29.20
2018-10-07T09:24:08.854Z,28.60
2018-10-07T09:26:37.451Z,28.30
2018-10-07T09:29:06.254Z,27.80
2018-10-07T09:31:34.890Z,27.40
2018-10-07T09:34:03.498Z,27.20
2018-10-07T09:36:32.080Z,26.80
2018-10-07T09:39:00.689Z,27.00
2018-10-07T09:41:29.268Z,27.30
2018-10-07T09:43:58.010Z,27.90
2018-10-07T09:46:26.680Z,28.30
2018-10-07T09:48:55.333Z,28.70
2018-10-07T09:51:24.046Z,29.10
2018-10-07T09:53:52.652Z,29.60
2018-10-07T09:56:21.241Z,29.40
2018-10-07T09:58:49.858Z,29.80
2018-10-07T10:01:18.487Z,30.30
2018-10-07T10:03:47.081Z,30.70
2018-10-07T10:06:15.661Z,31.00
2018-10-07T10:08:44.262Z,31.30
2018-10-07T10:11:13.061Z,31.70
2018-10-07T10:13:41.749Z,31.50
2018-10-07T10:16:10.454Z,31.60
2018-10-07T10:18:43.702Z,31.20
2018-10-07T10:21:37.421Z,31.70
2018-10-07T10:26:21.800Z,32.00
2018-10-07T10:29:05.153Z,32.10
2018-10-07T10:31:46.618Z,31.80
2018-10-07T10:36:30.436Z,32.60
2018-10-07T10:39:05.657Z,32.90
2018-10-07T10:42:00.889Z,32.50
2018-10-07T10:44:49.873Z,32.60
2018-10-07T10:47:26.687Z,32.60
2018-10-07T10:52:03.409Z,33.10
2018-10-07T10:54:48.570Z,32.80
2018-10-07T10:57:26.305Z,32.80
2018-10-07T11:00:26.604Z,31.40
2018-10-07T11:05:12.510Z,31.20
2018-10-07T11:08:00.114Z,31.30
2018-10-07T11:10:35.817Z,30.70
2018-10-07T11:13:21.544Z,30.50
2018-10-07T11:16:58.909Z,30.10
2018-10-07T11:21:46.034Z,29.70
2018-10-07T11:24:20.913Z,28.90
2018-10-07T11:27:16.657Z,28.20
2018-10-07T11:29:55.880Z,28.10
2018-10-07T11:33:37.140Z,27.90
2018-10-07T11:36:21.977Z,27.30
2018-10-07T11:39:06.139Z,27.00
2018-10-07T11:42:15.207Z,26.70
2018-10-07T11:45:06.578Z,26.70
2018-10-07T11:48:48.055Z,26.30
2018-10-07T11:51:57.822Z,26.60
2018-10-07T11:55:07.062Z,26.50
2018-10-07T11:57:35.716Z,25.90
2018-10-07T12:00:04.418Z,25.70
2018-10-07T12:02:33.069Z,25.90
2018-10-07T12:05:01.621Z,25.40
2018-10-07T12:07:31.810Z,25.50
2018-10-07T12:10:00.397Z,25.60
2018-10-07T12:12:29.004Z,25.60
2018-10-07T12:14:57.581Z,25.50
2018-10-07T12:17:26.193Z,25.40
2018-10-07T12:19:54.769Z,25.50
2018-10-07T12:22:23.375Z,25.50
2018-10-07T12:24:51.980Z,25.60
2018-10-07T12:27:20.585Z,25.60
2018-10-07T12:29:49.171Z,25.60
2018-10-07T12:32:17.793Z,25.50
2018-10-07T12:34:46.361Z,25.40
2018-10-07T12:37:14.972Z,25.30
2018-10-07T12:39:43.586Z,25.30
2018-10-07T12:42:12.284Z,25.30
2018-10-07T12:44:41.088Z,25.10
2018-10-07T12:47:09.691Z,25.20
2018-10-07T12:49:38.264Z,25.20
2018-10-07T12:52:06.955Z,25.20
2018-10-07T12:54:35.641Z,25.10
2018-10-07T12:57:04.328Z,25.10
2018-10-07T12:59:32.908Z,25.00
2018-10-07T13:02:01.516Z,25.10
2018-10-07T13:04:30.094Z,25.00
2018-10-07T13:06:58.705Z,25.00
2018-10-07T13:09:27.299Z,25.00
2018-10-07T13:11:56.248Z,24.80
2018-10-07T13:14:24.828Z,24.80
2018-10-07T13:16:53.429Z,24.70
2018-10-07T13:19:22.028Z,24.80
2018-10-07T13:21:50.621Z,24.70
2018-10-07T13:24:19.202Z,24.70
2018-10-07T13:26:47.761Z,24.40
2018-10-07T13:29:16.365Z,24.40
2018-10-07T13:31:44.965Z,24.40
2018-10-07T13:34:13.578Z,24.40
2018-10-07T13:36:42.161Z,24.50
2018-10-07T13:39:13.097Z,24.50
2018-10-07T13:41:42.064Z,24.40
2018-10-07T13:44:10.741Z,24.50
2018-10-07T13:46:39.334Z,24.40
2018-10-07T13:49:07.944Z,24.50
2018-10-07T13:51:36.516Z,24.50
2018-10-07T13:54:05.164Z,24.40
2018-10-07T13:56:33.748Z,24.30
2018-10-07T13:59:02.347Z,24.30
2018-10-07T14:01:30.925Z,24.30
2018-10-07T14:03:59.700Z,24.40
2018-10-07T14:06:28.241Z,24.40
2018-10-07T14:08:56.836Z,24.20
2018-10-07T14:11:25.520Z,24.20
2018-10-07T14:13:55.056Z,24.20
2018-10-07T14:16:23.717Z,24.20
2018-10-07T14:18:52.316Z,24.20
2018-10-07T14:21:20.876Z,24.20
2018-10-07T14:23:49.884Z,24.20
2018-10-07T14:26:18.422Z,24.00
2018-10-07T14:28:47.357Z,24.00
2018-10-07T14:31:16.005Z,24.00
2018-10-07T14:33:45.028Z,23.90
2018-10-07T14:36:13.616Z,23.60
2018-10-07T14:38:42.572Z,23.60
2018-10-07T14:41:11.154Z,23.70
2018-10-07T14:43:39.778Z,23.60
2018-10-07T14:46:08.374Z,23.40
2018-10-07T14:48:37.193Z,23.30
2018-10-07T14:51:07.543Z,23.40
2018-10-07T14:53:36.272Z,23.20
2018-10-07T14:56:04.849Z,23.00
2018-10-07T14:58:33.450Z,22.90
2018-10-07T15:01:02.046Z,23.00
2018-10-07T15:03:30.666Z,22.90
2018-10-07T15:05:59.458Z,23.00
2018-10-07T15:08:28.044Z,22.90
2018-10-07T15:10:56.652Z,22.90
2018-10-07T15:13:25.882Z,22.80
2018-10-07T15:15:54.465Z,22.70
2018-10-07T15:18:27.097Z,22.60
2018-10-07T15:20:55.729Z,22.60
2018-10-07T15:23:28.433Z,22.50
2018-10-07T15:25:57.030Z,22.50
2018-10-07T15:28:25.644Z,22.40
2018-10-07T15:30:54.276Z,22.30
2018-10-07T15:33:22.841Z,22.20
2018-10-07T15:35:51.432Z,22.20
2018-10-07T15:38:20.019Z,22.10
2018-10-07T15:40:48.632Z,22.10
2018-10-07T15:43:17.448Z,22.00
2018-10-07T15:45:46.044Z,22.10
2018-10-07T15:48:14.936Z,22.00
2018-10-07T15:50:43.554Z,21.90
2018-10-07T15:53:12.132Z,21.90
2018-10-07T15:55:41.054Z,21.90
2018-10-07T15:58:09.634Z,21.70
2018-10-07T16:00:38.258Z,21.70
2018-10-07T16:03:06.996Z,21.60
2018-10-07T16:05:35.729Z,21.50
2018-10-07T16:08:04.314Z,21.50
2018-10-07T16:10:32.917Z,21.50
2018-10-07T16:13:01.564Z,21.40
2018-10-07T16:15:30.185Z,21.30
2018-10-07T16:17:58.853Z,21.30
2018-10-07T16:20:27.464Z,21.20
2018-10-07T16:22:56.552Z,21.20
2018-10-07T16:25:25.296Z,21.10
2018-10-07T16:27:53.860Z,21.00
2018-10-07T16:30:22.462Z,21.00
2018-10-07T16:32:51.048Z,21.00
2018-10-07T16:35:19.922Z,20.90
2018-10-07T16:37:48.492Z,20.80
2018-10-07T16:40:17.097Z,20.80
2018-10-07T16:42:46.621Z,20.80
2018-10-07T16:45:15.328Z,20.60
2018-10-07T16:47:43.862Z,20.50
2018-10-07T16:50:12.461Z,20.50
2018-10-07T16:52:41.091Z,20.30
2018-10-07T16:55:10.136Z,20.20
2018-10-07T16:57:38.720Z,20.30
2018-10-07T17:00:07.695Z,20.20
2018-10-07T17:02:36.417Z,20.00
2018-10-07T17:05:05.067Z,19.80
2018-10-07T17:07:33.725Z,19.80
2018-10-07T17:10:02.380Z,19.70
2018-10-07T17:12:30.956Z,19.70
2018-10-07T17:14:59.572Z,19.70
2018-10-07T17:17:28.193Z,19.50
2018-10-07T17:19:56.930Z,19.50
2018-10-07T17:22:25.610Z,19.30
2018-10-07T17:24:54.217Z,19.30
2018-10-07T17:27:22.825Z,19.20
2018-10-07T17:29:51.400Z,19.10
2018-10-07T17:32:20.004Z,19.10
2018-10-07T17:34:48.573Z,19.10
2018-10-07T17:37:17.175Z,19.00
2018-10-07T17:39:45.757Z,18.90
2018-10-07T17:42:15.236Z,18.80
2018-10-07T17:44:43.829Z,18.80
2018-10-07T17:47:12.454Z,18.60
2018-10-07T17:49:41.046Z,18.50
2018-10-07T17:52:09.690Z,18.40
2018-10-07T17:54:38.274Z,18.40
2018-10-07T17:57:06.898Z,18.40
2018-10-07T17:59:35.474Z,18.30
2018-10-07T18:02:07.069Z,18.30
2018-10-07T18:04:35.649Z,18.30
2018-10-07T18:07:04.916Z,18.30
2018-10-07T18:09:33.501Z,18.30
2018-10-07T18:12:02.094Z,18.20
2018-10-07T18:14:33.017Z,18.10
2018-10-07T18:17:01.714Z,18.00
2018-10-07T18:19:30.300Z,17.90
2018-10-07T18:21:59.016Z,18.00
2018-10-07T18:24:27.943Z,17.90
2018-10-07T18:26:56.830Z,17.80
2018-10-07T18:29:25.452Z,17.80
2018-10-07T18:31:54.081Z,17.70
2018-10-07T18:34:23.052Z,17.60
2018-10-07T18:36:51.548Z,17.50
2018-10-07T18:39:20.121Z,17.50
2018-10-07T18:41:48.774Z,17.40
2018-10-07T18:44:17.367Z,17.40
2018-10-07T18:46:46.032Z,17.30
2018-10-07T18:49:14.704Z,17.20
2018-10-07T18:51:43.509Z,17.30
2018-10-07T18:54:12.097Z,17.20
2018-10-07T18:56:40.705Z,17.10
2018-10-07T18:59:09.360Z,17.10
2018-10-07T19:01:37.969Z,17.10
2018-10-07T19:04:06.629Z,17.00
2018-10-07T19:06:35.428Z,17.00
2018-10-07T19:09:05.447Z,17.00
2018-10-07T19:11:34.088Z,16.90
2018-10-07T19:14:02.676Z,16.90
2018-10-07T19:16:31.304Z,16.90
2018-10-07T19:18:59.980Z,16.70
2018-10-07T19:21:28.589Z,16.70
2018-10-07T19:23:57.195Z,16.70
2018-10-07T19:26:25.885Z,16.60
2018-10-07T19:28:54.593Z,16.60
2018-10-07T19:31:23.192Z,16.60
2018-10-07T19:33:51.776Z,16.50
2018-10-07T19:36:20.845Z,16.40
2018-10-07T19:38:50.445Z,16.40
2018-10-07T19:41:19.158Z,16.40
2018-10-07T19:43:47.760Z,16.20
2018-10-07T19:46:16.378Z,16.20
2018-10-07T19:48:44.984Z,16.10
2018-10-07T19:51:13.768Z,16.10
2018-10-07T19:53:42.397Z,16.20
2018-10-07T19:56:10.986Z,16.10
2018-10-07T19:58:39.864Z,16.00
2018-10-07T20:01:08.442Z,15.90
2018-10-07T20:03:37.066Z,15.80
2018-10-07T20:06:05.640Z,15.60
2018-10-07T20:08:34.361Z,15.50
2018-10-07T20:11:02.936Z,15.30
2018-10-07T20:13:32.981Z,15.10
2018-10-07T20:16:01.691Z,15.10
2018-10-07T20:18:30.516Z,15.20
2018-10-07T20:20:59.170Z,15.10
2018-10-07T20:23:27.780Z,15.10
2018-10-07T20:25:57.215Z,14.90
2018-10-07T20:28:26.008Z,14.90
2018-10-07T20:30:54.593Z,14.70
2018-10-07T20:33:24.011Z,14.70
2018-10-07T20:35:52.639Z,14.50
2018-10-07T20:38:21.307Z,14.30
2018-10-07T20:40:50.014Z,14.40
2018-10-07T20:43:18.563Z,14.30
2018-10-07T20:45:47.137Z,14.20
2018-10-07T20:48:16.063Z,14.10
2018-10-07T20:50:44.664Z,14.20
2018-10-07T20:53:13.266Z,13.80
2018-10-07T20:55:41.850Z,13.90
2018-10-07T20:58:10.444Z,14.00
2018-10-07T21:00:39.020Z,14.00
2018-10-07T21:03:07.675Z,13.80
2018-10-07T21:05:36.267Z,13.80
2018-10-07T21:08:04.936Z,13.70
2018-10-07T21:10:33.525Z,13.60
2018-10-07T21:13:02.242Z,13.50
2018-10-07T21:15:30.850Z,13.50
2018-10-07T21:17:59.456Z,13.50
2018-10-07T21:20:28.027Z,13.60
2018-10-07T21:22:56.633Z,13.50
2018-10-07T21:25:25.346Z,13.50
2018-10-07T21:27:54.015Z,13.40
2018-10-07T21:30:22.602Z,13.40
2018-10-07T21:32:51.356Z,13.20
2018-10-07T21:35:19.941Z,13.00
2018-10-07T21:37:48.552Z,13.00
2018-10-07T21:40:17.126Z,13.00
2018-10-07T21:42:45.750Z,13.00
2018-10-07T21:45:14.325Z,13.00
2018-10-07T21:47:43.917Z,13.10
2018-10-07T21:50:12.517Z,13.00
2018-10-07T21:52:41.115Z,12.90
2018-10-07T21:55:09.705Z,12.80
2018-10-07T21:57:38.314Z,12.70
2018-10-07T22:00:07.928Z,12.50
2018-10-07T22:02:36.770Z,12.40
2018-10-07T22:05:05.464Z,12.40
2018-10-07T22:07:34.072Z,12.50
2018-10-07T22:10:03.214Z,12.50
2018-10-07T22:12:31.820Z,12.60
2018-10-07T22:15:00.396Z,12.60
2018-10-07T22:17:28.993Z,12.50
2018-10-07T22:19:57.614Z,12.30
2018-10-07T22:22:26.185Z,12.50
2018-10-07T22:24:54.761Z,12.50
2018-10-07T22:27:23.356Z,12.40
2018-10-07T22:29:51.925Z,12.40
2018-10-07T22:32:20.525Z,12.30
2018-10-07T22:34:49.106Z,12.10
2018-10-07T22:37:17.707Z,12.00
2018-10-07T22:39:46.332Z,12.00
2018-10-07T22:42:15.009Z,12.10
2018-10-07T22:44:43.617Z,12.10
2018-10-07T22:47:12.620Z,12.10
2018-10-07T22:49:41.196Z,12.10
2018-10-07T22:52:09.810Z,12.10
2018-10-07T22:54:38.410Z,12.00
2018-10-07T22:57:07.185Z,12.00
2018-10-07T22:59:35.784Z,12.00
2018-10-07T23:02:04.432Z,12.00
2018-10-07T23:04:33.037Z,11.90
2018-10-07T23:07:02.277Z,11.90
2018-10-07T23:09:30.863Z,12.00
2018-10-07T23:11:59.460Z,11.90
2018-10-07T23:14:28.062Z,11.70
2018-10-07T23:16:56.645Z,11.70
2018-10-07T23:19:25.365Z,11.70
2018-10-07T23:21:53.953Z,11.70
2018-10-07T23:24:22.561Z,11.60
2018-10-07T23:26:51.139Z,11.60
2018-10-07T23:29:19.737Z,11.50
2018-10-07T23:31:48.588Z,11.60
2018-10-07T23:34:17.187Z,11.50
2018-10-07T23:36:45.762Z,11.40
2018-10-07T23:39:14.353Z,11.40
2018-10-07T23:41:42.985Z,11.30
2018-10-07T23:44:11.631Z,11.40
2018-10-07T23:46:40.213Z,11.30
2018-10-07T23:49:08.817Z,11.30
2018-10-07T23:51:37.408Z,11.10
2018-10-07T23:54:06.074Z,11.10
2018-10-07T23:56:34.663Z,11.20
2018-10-07T23:59:03.268Z,11.20
